sensor_id;sensor_type;location;lat;lon;timestamp;temperature;humidity
32612;DHT22;19030;49.478;8.986;2023-06-10T00:00:54;15.80;99.90
32612;DHT22;19030;49.478;8.986;2023-06-10T00:02:56;15.80;99.90
32612;DHT22;19030;49.478;8.986;2023-06-10T00:04:56;15.80;99.90
32612;DHT22;19030;49.478;8.986;2023-06-10T00:06:57;15.80;99.90
32612;DHT22;19030;49.478;8.986;2023-06-10T00:08:57;15.80;99.90
32612;DHT22;19030;49.478;8.986;2023-06-10T00:10:59;15.70;99.90
32612;DHT22;19030;49.478;8.986;2023-06-10T00:13:04;15.70;99.90
32612;DHT22;19030;49.478;8.986;2023-06-10T00:15:06;15.60;99.90
32612;DHT22;19030;49.478;8.986;2023-06-10T00:17:07;15.60;99.90
32612;DHT22;19030;49.478;8.986;2023-06-10T00:19:09;15.60;99.90
32612;DHT22;19030;49.478;8.986;2023-06-10T00:21:10;15.50;99.90
32612;DHT22;19030;49.478;8.986;2023-06-10T00:23:11;15.50;99.90
32612;DHT22;19030;49.478;8.986;2023-06-10T00:25:11;15.50;99.90
32612;DHT22;19030;49.478;8.986;2023-06-10T00:27:12;15.40;99.90
32612;DHT22;19030;49.478;8.986;2023-06-10T00:29:13;15.40;99.90
32612;DHT22;19030;49.478;8.986;2023-06-10T00:31:14;15.40;99.90
32612;DHT22;19030;49.478;8.986;2023-06-10T00:33:15;15.30;99.90
32612;DHT22;19030;49.478;8.986;2023-06-10T00:35:16;15.30;99.90
32612;DHT22;19030;49.478;8.986;2023-06-10T00:37:16;15.30;99.90
32612;DHT22;19030;49.478;8.986;2023-06-10T00:39:17;15.30;99.90
32612;DHT22;19030;49.478;8.986;2023-06-10T00:41:18;15.20;99.90
32612;DHT22;19030;49.478;8.986;2023-06-10T00:43:18;15.10;99.90
32612;DHT22;19030;49.478;8.986;2023-06-10T00:45:19;15.10;99.90
32612;DHT22;19030;49.478;8.986;2023-06-10T00:47:20;15.10;99.90
32612;DHT22;19030;49.478;8.986;2023-06-10T00:49:21;15.00;99.90
32612;DHT22;19030;49.478;8.986;2023-06-10T00:53:26;15.00;99.90
32612;DHT22;19030;49.478;8.986;2023-06-10T00:55:28;15.00;99.90
32612;DHT22;19030;49.478;8.986;2023-06-10T00:57:28;15.00;99.90
32612;DHT22;19030;49.478;8.986;2023-06-10T00:59:31;15.00;99.90
32612;DHT22;19030;49.478;8.986;2023-06-10T01:01:32;14.90;99.90
32612;DHT22;19030;49.478;8.986;2023-06-10T01:03:37;14.90;99.90
32612;DHT22;19030;49.478;8.986;2023-06-10T01:05:38;15.00;99.90
32612;DHT22;19030;49.478;8.986;2023-06-10T01:07:59;14.90;99.90
32612;DHT22;19030;49.478;8.986;2023-06-10T01:12:53;14.90;99.90
32612;DHT22;19030;49.478;8.986;2023-06-10T01:14:57;14.80;99.90
32612;DHT22;19030;49.478;8.986;2023-06-10T01:16:58;14.80;99.90
32612;DHT22;19030;49.478;8.986;2023-06-10T01:19:00;14.80;99.90
32612;DHT22;19030;49.478;8.986;2023-06-10T01:21:01;14.80;99.90
32612;DHT22;19030;49.478;8.986;2023-06-10T01:23:02;14.80;99.90
32612;DHT22;19030;49.478;8.986;2023-06-10T01:25:03;14.80;99.90
32612;DHT22;19030;49.478;8.986;2023-06-10T01:27:11;14.80;99.90
32612;DHT22;19030;49.478;8.986;2023-06-10T01:29:31;14.80;99.90
32612;DHT22;19030;49.478;8.986;2023-06-10T01:31:49;14.80;99.90
32612;DHT22;19030;49.478;8.986;2023-06-10T01:33:52;14.80;99.90
32612;DHT22;19030;49.478;8.986;2023-06-10T01:35:53;14.70;99.90
32612;DHT22;19030;49.478;8.986;2023-06-10T01:37:57;14.70;99.90
32612;DHT22;19030;49.478;8.986;2023-06-10T01:40:00;14.70;99.90
32612;DHT22;19030;49.478;8.986;2023-06-10T01:42:03;14.70;99.90
32612;DHT22;19030;49.478;8.986;2023-06-10T01:44:05;14.70;99.90
32612;DHT22;19030;49.478;8.986;2023-06-10T01:46:06;14.70;99.90
32612;DHT22;19030;49.478;8.986;2023-06-10T01:48:06;14.70;99.90
32612;DHT22;19030;49.478;8.986;2023-06-10T01:50:07;14.70;99.90
32612;DHT22;19030;49.478;8.986;2023-06-10T01:52:09;14.70;99.90
32612;DHT22;19030;49.478;8.986;2023-06-10T01:54:10;14.70;99.90
32612;DHT22;19030;49.478;8.986;2023-06-10T01:56:10;14.70;99.90
32612;DHT22;19030;49.478;8.986;2023-06-10T01:58:17;14.60;99.90
32612;DHT22;19030;49.478;8.986;2023-06-10T02:00:17;14.60;99.90
32612;DHT22;19030;49.478;8.986;2023-06-10T02:02:19;14.60;99.90
32612;DHT22;19030;49.478;8.986;2023-06-10T02:04:19;14.60;99.90
32612;DHT22;19030;49.478;8.986;2023-06-10T02:06:20;14.50;99.90
32612;DHT22;19030;49.478;8.986;2023-06-10T02:08:21;14.50;99.90
32612;DHT22;19030;49.478;8.986;2023-06-10T02:10:21;14.50;99.90
32612;DHT22;19030;49.478;8.986;2023-06-10T02:12:22;14.40;99.90
32612;DHT22;19030;49.478;8.986;2023-06-10T02:14:23;14.40;99.90
32612;DHT22;19030;49.478;8.986;2023-06-10T02:16:25;14.40;99.90
32612;DHT22;19030;49.478;8.986;2023-06-10T02:18:28;14.40;99.90
32612;DHT22;19030;49.478;8.986;2023-06-10T02:20:28;14.40;99.90
32612;DHT22;19030;49.478;8.986;2023-06-10T02:22:29;14.40;99.90
32612;DHT22;19030;49.478;8.986;2023-06-10T02:24:30;14.40;99.90
32612;DHT22;19030;49.478;8.986;2023-06-10T02:26:30;14.40;99.90
32612;DHT22;19030;49.478;8.986;2023-06-10T02:28:34;14.30;99.90
32612;DHT22;19030;49.478;8.986;2023-06-10T02:30:34;14.30;99.90
32612;DHT22;19030;49.478;8.986;2023-06-10T02:32:36;14.30;99.90
32612;DHT22;19030;49.478;8.986;2023-06-10T02:34:37;14.30;99.90
32612;DHT22;19030;49.478;8.986;2023-06-10T02:36:39;14.30;99.90
32612;DHT22;19030;49.478;8.986;2023-06-10T02:38:40;14.40;99.90
32612;DHT22;19030;49.478;8.986;2023-06-10T02:40:40;14.40;99.90
32612;DHT22;19030;49.478;8.986;2023-06-10T02:42:41;14.40;99.90
32612;DHT22;19030;49.478;8.986;2023-06-10T02:44:42;14.50;99.90
32612;DHT22;19030;49.478;8.986;2023-06-10T02:46:47;14.50;99.90
32612;DHT22;19030;49.478;8.986;2023-06-10T02:48:48;14.40;99.90
32612;DHT22;19030;49.478;8.986;2023-06-10T02:50:54;14.40;99.90
32612;DHT22;19030;49.478;8.986;2023-06-10T02:53:03;14.40;99.90
32612;DHT22;19030;49.478;8.986;2023-06-10T02:55:04;14.40;99.90
32612;DHT22;19030;49.478;8.986;2023-06-10T02:57:06;14.50;99.90
32612;DHT22;19030;49.478;8.986;2023-06-10T02:59:06;14.50;99.90
32612;DHT22;19030;49.478;8.986;2023-06-10T03:01:08;14.50;99.90
32612;DHT22;19030;49.478;8.986;2023-06-10T03:03:18;14.50;99.90
32612;DHT22;19030;49.478;8.986;2023-06-10T03:05:30;14.50;99.90
32612;DHT22;19030;49.478;8.986;2023-06-10T03:07:32;14.50;99.90
32612;DHT22;19030;49.478;8.986;2023-06-10T03:09:34;14.50;99.90
32612;DHT22;19030;49.478;8.986;2023-06-10T03:11:36;14.40;99.90
32612;DHT22;19030;49.478;8.986;2023-06-10T03:13:40;14.40;99.90
32612;DHT22;19030;49.478;8.986;2023-06-10T03:15:43;14.30;99.90
32612;DHT22;19030;49.478;8.986;2023-06-10T03:17:48;14.30;99.90
32612;DHT22;19030;49.478;8.986;2023-06-10T03:19:48;14.30;99.90
32612;DHT22;19030;49.478;8.986;2023-06-10T03:21:57;14.20;99.90
32612;DHT22;19030;49.478;8.986;2023-06-10T03:23:58;14.20;99.90
32612;DHT22;19030;49.478;8.986;2023-06-10T03:25:59;14.20;99.90
32612;DHT22;19030;49.478;8.986;2023-06-10T03:28:00;14.10;99.90
32612;DHT22;19030;49.478;8.986;2023-06-10T03:30:02;14.10;99.90
32612;DHT22;19030;49.478;8.986;2023-06-10T03:32:04;14.10;99.90
32612;DHT22;19030;49.478;8.986;2023-06-10T03:34:04;14.10;99.90
32612;DHT22;19030;49.478;8.986;2023-06-10T03:36:06;14.00;99.90
32612;DHT22;19030;49.478;8.986;2023-06-10T03:38:06;14.10;99.90
32612;DHT22;19030;49.478;8.986;2023-06-10T03:40:08;14.10;99.90
32612;DHT22;19030;49.478;8.986;2023-06-10T03:42:10;14.10;99.90
32612;DHT22;19030;49.478;8.986;2023-06-10T03:44:11;14.00;99.90
32612;DHT22;19030;49.478;8.986;2023-06-10T03:46:11;14.10;99.90
32612;DHT22;19030;49.478;8.986;2023-06-10T03:48:13;14.00;99.90
32612;DHT22;19030;49.478;8.986;2023-06-10T03:50:20;14.00;99.90
32612;DHT22;19030;49.478;8.986;2023-06-10T03:52:20;14.00;99.90
32612;DHT22;19030;49.478;8.986;2023-06-10T03:54:21;14.00;99.90
32612;DHT22;19030;49.478;8.986;2023-06-10T03:56:22;14.00;99.90
32612;DHT22;19030;49.478;8.986;2023-06-10T03:58:23;14.00;99.90
32612;DHT22;19030;49.478;8.986;2023-06-10T04:00:24;14.00;99.90
32612;DHT22;19030;49.478;8.986;2023-06-10T04:02:25;14.00;99.90
32612;DHT22;19030;49.478;8.986;2023-06-10T04:04:26;14.00;99.90
32612;DHT22;19030;49.478;8.986;2023-06-10T04:06:26;14.00;99.90
32612;DHT22;19030;49.478;8.986;2023-06-10T04:08:29;14.00;99.90
32612;DHT22;19030;49.478;8.986;2023-06-10T04:10:33;14.00;99.90
32612;DHT22;19030;49.478;8.986;2023-06-10T04:12:35;14.10;99.90
32612;DHT22;19030;49.478;8.986;2023-06-10T04:14:36;14.10;99.90
32612;DHT22;19030;49.478;8.986;2023-06-10T04:16:38;14.10;99.90
32612;DHT22;19030;49.478;8.986;2023-06-10T04:18:39;14.20;99.90
32612;DHT22;19030;49.478;8.986;2023-06-10T04:20:42;14.20;99.90
32612;DHT22;19030;49.478;8.986;2023-06-10T04:22:43;14.20;99.90
32612;DHT22;19030;49.478;8.986;2023-06-10T04:24:45;14.30;99.90
32612;DHT22;19030;49.478;8.986;2023-06-10T04:26:46;14.30;99.90
32612;DHT22;19030;49.478;8.986;2023-06-10T04:28:48;14.40;99.90
32612;DHT22;19030;49.478;8.986;2023-06-10T04:30:49;14.40;99.90
32612;DHT22;19030;49.478;8.986;2023-06-10T04:32:50;14.40;99.90
32612;DHT22;19030;49.478;8.986;2023-06-10T04:34:52;14.50;99.90
32612;DHT22;19030;49.478;8.986;2023-06-10T04:36:53;14.50;99.90
32612;DHT22;19030;49.478;8.986;2023-06-10T04:38:54;14.60;99.90
32612;DHT22;19030;49.478;8.986;2023-06-10T04:40:56;14.70;99.90
32612;DHT22;19030;49.478;8.986;2023-06-10T04:42:57;14.80;99.90
32612;DHT22;19030;49.478;8.986;2023-06-10T04:44:58;14.80;99.90
32612;DHT22;19030;49.478;8.986;2023-06-10T04:46:59;14.90;99.90
32612;DHT22;19030;49.478;8.986;2023-06-10T04:48:59;15.00;99.90
32612;DHT22;19030;49.478;8.986;2023-06-10T04:51:00;15.00;99.90
32612;DHT22;19030;49.478;8.986;2023-06-10T04:53:00;15.10;99.90
32612;DHT22;19030;49.478;8.986;2023-06-10T04:55:01;15.20;99.90
32612;DHT22;19030;49.478;8.986;2023-06-10T04:57:02;15.30;99.90
32612;DHT22;19030;49.478;8.986;2023-06-10T04:59:03;15.30;99.90
32612;DHT22;19030;49.478;8.986;2023-06-10T05:01:03;15.40;99.90
32612;DHT22;19030;49.478;8.986;2023-06-10T05:03:04;15.50;99.90
32612;DHT22;19030;49.478;8.986;2023-06-10T05:05:05;15.60;99.90
32612;DHT22;19030;49.478;8.986;2023-06-10T05:07:06;15.70;99.90
32612;DHT22;19030;49.478;8.986;2023-06-10T05:09:07;15.80;99.90
32612;DHT22;19030;49.478;8.986;2023-06-10T05:11:07;15.90;99.90
32612;DHT22;19030;49.478;8.986;2023-06-10T05:13:08;15.90;99.90
32612;DHT22;19030;49.478;8.986;2023-06-10T05:15:09;16.00;99.90
32612;DHT22;19030;49.478;8.986;2023-06-10T05:17:10;16.00;99.90
32612;DHT22;19030;49.478;8.986;2023-06-10T05:19:11;16.10;99.90
32612;DHT22;19030;49.478;8.986;2023-06-10T05:21:12;16.10;99.90
32612;DHT22;19030;49.478;8.986;2023-06-10T05:23:12;16.30;99.90
32612;DHT22;19030;49.478;8.986;2023-06-10T05:25:13;16.30;99.90
32612;DHT22;19030;49.478;8.986;2023-06-10T05:27:14;16.40;99.90
32612;DHT22;19030;49.478;8.986;2023-06-10T05:29:14;16.50;99.90
32612;DHT22;19030;49.478;8.986;2023-06-10T05:31:15;16.60;99.90
32612;DHT22;19030;49.478;8.986;2023-06-10T05:33:16;16.80;99.90
32612;DHT22;19030;49.478;8.986;2023-06-10T05:35:17;16.80;99.90
32612;DHT22;19030;49.478;8.986;2023-06-10T05:37:17;17.00;99.90
32612;DHT22;19030;49.478;8.986;2023-06-10T05:39:18;17.10;99.90
32612;DHT22;19030;49.478;8.986;2023-06-10T05:41:18;17.20;99.90
32612;DHT22;19030;49.478;8.986;2023-06-10T05:43:19;17.40;99.90
32612;DHT22;19030;49.478;8.986;2023-06-10T05:45:20;17.40;99.90
32612;DHT22;19030;49.478;8.986;2023-06-10T05:47:20;17.50;99.90
32612;DHT22;19030;49.478;8.986;2023-06-10T05:49:21;17.60;99.90
32612;DHT22;19030;49.478;8.986;2023-06-10T05:51:21;17.70;99.90
32612;DHT22;19030;49.478;8.986;2023-06-10T05:53:22;17.80;99.90
32612;DHT22;19030;49.478;8.986;2023-06-10T05:55:22;17.90;99.90
32612;DHT22;19030;49.478;8.986;2023-06-10T05:57:23;18.00;99.90
32612;DHT22;19030;49.478;8.986;2023-06-10T05:59:24;18.20;99.90
32612;DHT22;19030;49.478;8.986;2023-06-10T06:01:24;18.30;99.90
32612;DHT22;19030;49.478;8.986;2023-06-10T06:03:25;18.40;99.90
32612;DHT22;19030;49.478;8.986;2023-06-10T06:05:25;18.50;99.90
32612;DHT22;19030;49.478;8.986;2023-06-10T06:07:26;18.70;99.90
32612;DHT22;19030;49.478;8.986;2023-06-10T06:09:27;18.80;99.90
32612;DHT22;19030;49.478;8.986;2023-06-10T06:11:27;19.00;99.90
32612;DHT22;19030;49.478;8.986;2023-06-10T06:13:28;19.10;99.90
32612;DHT22;19030;49.478;8.986;2023-06-10T06:15:28;19.30;99.90
32612;DHT22;19030;49.478;8.986;2023-06-10T06:17:29;19.50;99.90
32612;DHT22;19030;49.478;8.986;2023-06-10T06:19:30;19.60;99.90
32612;DHT22;19030;49.478;8.986;2023-06-10T06:21:30;19.90;99.90
32612;DHT22;19030;49.478;8.986;2023-06-10T06:23:31;20.10;99.90
32612;DHT22;19030;49.478;8.986;2023-06-10T06:25:31;20.20;99.90
32612;DHT22;19030;49.478;8.986;2023-06-10T06:27:32;20.40;99.90
32612;DHT22;19030;49.478;8.986;2023-06-10T06:29:32;20.60;99.90
32612;DHT22;19030;49.478;8.986;2023-06-10T06:31:33;20.80;99.90
32612;DHT22;19030;49.478;8.986;2023-06-10T06:33:33;21.10;99.90
32612;DHT22;19030;49.478;8.986;2023-06-10T06:35:35;21.20;99.90
32612;DHT22;19030;49.478;8.986;2023-06-10T06:37:35;21.50;99.90
32612;DHT22;19030;49.478;8.986;2023-06-10T06:39:54;21.80;99.90
32612;DHT22;19030;49.478;8.986;2023-06-10T06:41:54;22.20;99.90
32612;DHT22;19030;49.478;8.986;2023-06-10T06:44:11;23.20;99.90
32612;DHT22;19030;49.478;8.986;2023-06-10T06:46:13;24.30;99.90
32612;DHT22;19030;49.478;8.986;2023-06-10T06:48:13;24.80;99.40
32612;DHT22;19030;49.478;8.986;2023-06-10T06:50:14;25.20;97.70
32612;DHT22;19030;49.478;8.986;2023-06-10T06:52:15;25.40;97.50
32612;DHT22;19030;49.478;8.986;2023-06-10T06:54:16;25.40;98.10
32612;DHT22;19030;49.478;8.986;2023-06-10T06:56:16;25.40;98.70
32612;DHT22;19030;49.478;8.986;2023-06-10T06:58:17;25.30;96.20
32612;DHT22;19030;49.478;8.986;2023-06-10T07:00:18;25.30;97.10
32612;DHT22;19030;49.478;8.986;2023-06-10T07:02:19;25.60;95.80
32612;DHT22;19030;49.478;8.986;2023-06-10T07:04:19;26.30;95.10
32612;DHT22;19030;49.478;8.986;2023-06-10T07:06:22;27.00;92.30
32612;DHT22;19030;49.478;8.986;2023-06-10T07:08:22;27.80;89.70
32612;DHT22;19030;49.478;8.986;2023-06-10T07:10:23;28.60;88.30
32612;DHT22;19030;49.478;8.986;2023-06-10T07:12:25;29.40;82.80
32612;DHT22;19030;49.478;8.986;2023-06-10T07:14:26;29.90;72.70
32612;DHT22;19030;49.478;8.986;2023-06-10T07:16:26;30.40;69.40
32612;DHT22;19030;49.478;8.986;2023-06-10T07:18:27;30.80;65.90
32612;DHT22;19030;49.478;8.986;2023-06-10T07:20:27;31.10;67.50
32612;DHT22;19030;49.478;8.986;2023-06-10T07:22:28;31.40;63.70
32612;DHT22;19030;49.478;8.986;2023-06-10T07:24:29;31.60;56.20
32612;DHT22;19030;49.478;8.986;2023-06-10T07:26:29;31.80;56.10
32612;DHT22;19030;49.478;8.986;2023-06-10T07:28:30;31.90;56.00
32612;DHT22;19030;49.478;8.986;2023-06-10T07:30:30;32.10;56.90
32612;DHT22;19030;49.478;8.986;2023-06-10T07:32:31;32.20;53.20
32612;DHT22;19030;49.478;8.986;2023-06-10T07:34:31;32.20;51.80
32612;DHT22;19030;49.478;8.986;2023-06-10T07:36:32;32.20;50.60
32612;DHT22;19030;49.478;8.986;2023-06-10T07:38:33;32.20;50.50
32612;DHT22;19030;49.478;8.986;2023-06-10T07:40:34;32.20;51.20
32612;DHT22;19030;49.478;8.986;2023-06-10T07:42:35;32.20;48.70
32612;DHT22;19030;49.478;8.986;2023-06-10T07:44:36;32.20;48.40
32612;DHT22;19030;49.478;8.986;2023-06-10T07:46:37;32.10;48.80
32612;DHT22;19030;49.478;8.986;2023-06-10T07:48:38;32.10;49.60
32612;DHT22;19030;49.478;8.986;2023-06-10T07:50:38;32.10;48.10
32612;DHT22;19030;49.478;8.986;2023-06-10T07:52:39;32.00;49.70
32612;DHT22;19030;49.478;8.986;2023-06-10T07:54:39;32.10;50.00
32612;DHT22;19030;49.478;8.986;2023-06-10T07:56:40;32.50;50.50
32612;DHT22;19030;49.478;8.986;2023-06-10T07:58:40;32.80;47.80
32612;DHT22;19030;49.478;8.986;2023-06-10T08:00:41;32.90;48.40
32612;DHT22;19030;49.478;8.986;2023-06-10T08:02:42;33.00;46.50
32612;DHT22;19030;49.478;8.986;2023-06-10T08:04:42;33.00;46.30
32612;DHT22;19030;49.478;8.986;2023-06-10T08:06:43;32.90;46.70
32612;DHT22;19030;49.478;8.986;2023-06-10T08:08:44;32.80;47.00
32612;DHT22;19030;49.478;8.986;2023-06-10T08:10:47;32.90;47.40
32612;DHT22;19030;49.478;8.986;2023-06-10T08:12:48;33.10;46.70
32612;DHT22;19030;49.478;8.986;2023-06-10T08:14:48;33.10;46.30
32612;DHT22;19030;49.478;8.986;2023-06-10T08:16:49;33.10;46.80
32612;DHT22;19030;49.478;8.986;2023-06-10T08:18:50;33.20;46.20
32612;DHT22;19030;49.478;8.986;2023-06-10T08:20:50;33.00;44.10
32612;DHT22;19030;49.478;8.986;2023-06-10T08:22:51;32.90;46.30
32612;DHT22;19030;49.478;8.986;2023-06-10T08:24:52;32.90;45.40
32612;DHT22;19030;49.478;8.986;2023-06-10T08:26:52;33.10;45.80
32612;DHT22;19030;49.478;8.986;2023-06-10T08:28:53;33.30;45.30
32612;DHT22;19030;49.478;8.986;2023-06-10T08:30:54;33.50;44.40
32612;DHT22;19030;49.478;8.986;2023-06-10T08:32:55;33.20;44.00
32612;DHT22;19030;49.478;8.986;2023-06-10T08:34:56;33.00;44.20
32612;DHT22;19030;49.478;8.986;2023-06-10T08:36:56;33.10;45.10
32612;DHT22;19030;49.478;8.986;2023-06-10T08:38:57;33.40;45.50
32612;DHT22;19030;49.478;8.986;2023-06-10T08:40:59;33.60;44.40
32612;DHT22;19030;49.478;8.986;2023-06-10T08:43:05;33.90;44.70
32612;DHT22;19030;49.478;8.986;2023-06-10T08:45:07;34.10;43.00
32612;DHT22;19030;49.478;8.986;2023-06-10T08:47:15;33.60;42.30
32612;DHT22;19030;49.478;8.986;2023-06-10T08:49:18;33.60;43.50
32612;DHT22;19030;49.478;8.986;2023-06-10T08:51:22;33.80;43.30
32612;DHT22;19030;49.478;8.986;2023-06-10T08:53:26;34.20;43.80
32612;DHT22;19030;49.478;8.986;2023-06-10T08:55:30;34.50;44.10
32612;DHT22;19030;49.478;8.986;2023-06-10T08:57:33;34.80;41.50
32612;DHT22;19030;49.478;8.986;2023-06-10T08:59:33;35.00;40.50
32612;DHT22;19030;49.478;8.986;2023-06-10T09:01:34;35.30;41.70
32612;DHT22;19030;49.478;8.986;2023-06-10T09:03:37;35.50;40.90
32612;DHT22;19030;49.478;8.986;2023-06-10T09:05:38;35.90;39.60
32612;DHT22;19030;49.478;8.986;2023-06-10T09:07:39;36.40;40.20
32612;DHT22;19030;49.478;8.986;2023-06-10T09:09:44;36.70;38.30
32612;DHT22;19030;49.478;8.986;2023-06-10T09:11:45;36.60;38.40
32612;DHT22;19030;49.478;8.986;2023-06-10T09:13:46;36.40;38.30
32612;DHT22;19030;49.478;8.986;2023-06-10T09:15:46;35.80;38.60
32612;DHT22;19030;49.478;8.986;2023-06-10T09:17:49;36.00;38.90
32612;DHT22;19030;49.478;8.986;2023-06-10T09:19:50;36.70;37.60
32612;DHT22;19030;49.478;8.986;2023-06-10T09:21:54;37.50;36.80
32612;DHT22;19030;49.478;8.986;2023-06-10T09:23:54;38.00;35.00
32612;DHT22;19030;49.478;8.986;2023-06-10T09:25:57;37.90;36.00
32612;DHT22;19030;49.478;8.986;2023-06-10T09:27:58;38.00;34.70
32612;DHT22;19030;49.478;8.986;2023-06-10T09:29:58;38.20;35.40
32612;DHT22;19030;49.478;8.986;2023-06-10T09:31:59;38.30;33.50
32612;DHT22;19030;49.478;8.986;2023-06-10T09:34:15;38.20;35.30
32612;DHT22;19030;49.478;8.986;2023-06-10T09:36:23;38.30;34.70
32612;DHT22;19030;49.478;8.986;2023-06-10T09:38:23;37.90;34.80
32612;DHT22;19030;49.478;8.986;2023-06-10T09:40:29;37.90;33.90
32612;DHT22;19030;49.478;8.986;2023-06-10T09:42:33;37.70;34.80
32612;DHT22;19030;49.478;8.986;2023-06-10T09:44:34;37.60;35.20
32612;DHT22;19030;49.478;8.986;2023-06-10T09:46:35;37.50;34.20
32612;DHT22;19030;49.478;8.986;2023-06-10T09:48:41;37.30;35.00
32612;DHT22;19030;49.478;8.986;2023-06-10T09:50:43;37.70;35.00
32612;DHT22;19030;49.478;8.986;2023-06-10T09:52:46;38.30;33.80
32612;DHT22;19030;49.478;8.986;2023-06-10T09:54:46;38.80;32.50
32612;DHT22;19030;49.478;8.986;2023-06-10T09:56:48;38.50;32.80
32612;DHT22;19030;49.478;8.986;2023-06-10T09:58:53;38.70;31.60
32612;DHT22;19030;49.478;8.986;2023-06-10T10:00:53;38.80;32.00
32612;DHT22;19030;49.478;8.986;2023-06-10T10:02:54;38.40;32.10
32612;DHT22;19030;49.478;8.986;2023-06-10T10:05:02;38.30;33.00
32612;DHT22;19030;49.478;8.986;2023-06-10T10:07:03;38.30;32.70
32612;DHT22;19030;49.478;8.986;2023-06-10T10:09:04;38.50;32.60
32612;DHT22;19030;49.478;8.986;2023-06-10T10:11:04;38.90;33.30
32612;DHT22;19030;49.478;8.986;2023-06-10T10:13:05;39.20;31.20
32612;DHT22;19030;49.478;8.986;2023-06-10T10:15:07;39.20;31.60
32612;DHT22;19030;49.478;8.986;2023-06-10T10:17:10;39.50;31.70
32612;DHT22;19030;49.478;8.986;2023-06-10T10:19:16;39.60;31.90
32612;DHT22;19030;49.478;8.986;2023-06-10T10:21:26;39.30;31.70
32612;DHT22;19030;49.478;8.986;2023-06-10T10:23:43;38.40;31.90
32612;DHT22;19030;49.478;8.986;2023-06-10T10:25:49;37.30;33.30
32612;DHT22;19030;49.478;8.986;2023-06-10T10:27:56;35.80;34.80
32612;DHT22;19030;49.478;8.986;2023-06-10T10:29:58;35.10;35.30
32612;DHT22;19030;49.478;8.986;2023-06-10T10:32:00;34.40;36.00
32612;DHT22;19030;49.478;8.986;2023-06-10T10:34:07;34.30;37.10
32612;DHT22;19030;49.478;8.986;2023-06-10T10:36:09;33.90;36.90
32612;DHT22;19030;49.478;8.986;2023-06-10T10:38:10;33.50;37.40
32612;DHT22;19030;49.478;8.986;2023-06-10T10:40:11;33.20;38.50
32612;DHT22;19030;49.478;8.986;2023-06-10T10:42:13;33.10;39.40
32612;DHT22;19030;49.478;8.986;2023-06-10T10:44:14;33.30;38.80
32612;DHT22;19030;49.478;8.986;2023-06-10T10:46:16;33.60;40.00
32612;DHT22;19030;49.478;8.986;2023-06-10T10:48:17;34.00;38.30
32612;DHT22;19030;49.478;8.986;2023-06-10T10:50:20;34.20;38.20
32612;DHT22;19030;49.478;8.986;2023-06-10T10:52:21;34.40;37.90
32612;DHT22;19030;49.478;8.986;2023-06-10T10:54:35;34.70;38.10
32612;DHT22;19030;49.478;8.986;2023-06-10T10:56:36;35.10;38.30
32612;DHT22;19030;49.478;8.986;2023-06-10T10:58:36;35.30;38.50
32612;DHT22;19030;49.478;8.986;2023-06-10T11:00:43;35.20;36.90
32612;DHT22;19030;49.478;8.986;2023-06-10T11:02:45;35.20;35.50
32612;DHT22;19030;49.478;8.986;2023-06-10T11:04:47;35.00;36.80
32612;DHT22;19030;49.478;8.986;2023-06-10T11:06:55;34.90;36.60
32612;DHT22;19030;49.478;8.986;2023-06-10T11:09:28;34.80;39.50
32612;DHT22;19030;49.478;8.986;2023-06-10T11:11:29;34.60;37.10
32612;DHT22;19030;49.478;8.986;2023-06-10T11:13:31;34.40;37.10
32612;DHT22;19030;49.478;8.986;2023-06-10T11:15:31;34.30;36.90
32612;DHT22;19030;49.478;8.986;2023-06-10T11:17:32;34.20;37.20
32612;DHT22;19030;49.478;8.986;2023-06-10T11:19:37;34.20;37.30
32612;DHT22;19030;49.478;8.986;2023-06-10T11:21:58;34.10;36.90
32612;DHT22;19030;49.478;8.986;2023-06-10T11:24:00;34.00;36.80
32612;DHT22;19030;49.478;8.986;2023-06-10T11:28:34;34.10;36.60
32612;DHT22;19030;49.478;8.986;2023-06-10T11:30:35;34.10;36.80
32612;DHT22;19030;49.478;8.986;2023-06-10T11:32:36;33.90;36.70
32612;DHT22;19030;49.478;8.986;2023-06-10T11:34:36;33.50;37.80
32612;DHT22;19030;49.478;8.986;2023-06-10T11:36:39;33.60;37.90
32612;DHT22;19030;49.478;8.986;2023-06-10T11:38:43;33.60;37.30
32612;DHT22;19030;49.478;8.986;2023-06-10T11:40:51;33.80;37.80
32612;DHT22;19030;49.478;8.986;2023-06-10T11:42:52;34.30;37.30
32612;DHT22;19030;49.478;8.986;2023-06-10T11:44:53;34.60;37.00
32612;DHT22;19030;49.478;8.986;2023-06-10T11:46:56;34.50;35.90
32612;DHT22;19030;49.478;8.986;2023-06-10T11:48:58;34.20;36.40
32612;DHT22;19030;49.478;8.986;2023-06-10T11:50:59;33.60;36.00
32612;DHT22;19030;49.478;8.986;2023-06-10T11:52:59;33.50;37.80
32612;DHT22;19030;49.478;8.986;2023-06-10T11:55:00;33.50;38.00
32612;DHT22;19030;49.478;8.986;2023-06-10T11:57:01;33.50;39.00
32612;DHT22;19030;49.478;8.986;2023-06-10T11:59:05;33.70;39.40
32612;DHT22;19030;49.478;8.986;2023-06-10T12:01:07;34.10;37.30
32612;DHT22;19030;49.478;8.986;2023-06-10T12:03:07;34.40;37.20
32612;DHT22;19030;49.478;8.986;2023-06-10T12:05:12;34.80;36.30
32612;DHT22;19030;49.478;8.986;2023-06-10T12:07:19;34.90;36.30
32612;DHT22;19030;49.478;8.986;2023-06-10T12:09:22;35.00;38.00
32612;DHT22;19030;49.478;8.986;2023-06-10T12:11:22;35.20;36.10
32612;DHT22;19030;49.478;8.986;2023-06-10T12:13:27;34.90;36.70
32612;DHT22;19030;49.478;8.986;2023-06-10T12:15:27;34.60;35.40
32612;DHT22;19030;49.478;8.986;2023-06-10T12:19:40;34.10;37.30
32612;DHT22;19030;49.478;8.986;2023-06-10T12:21:40;34.10;36.00
32612;DHT22;19030;49.478;8.986;2023-06-10T12:24:06;33.90;36.70
32612;DHT22;19030;49.478;8.986;2023-06-10T12:26:07;33.80;38.10
32612;DHT22;19030;49.478;8.986;2023-06-10T12:28:10;33.90;38.40
32612;DHT22;19030;49.478;8.986;2023-06-10T12:30:10;33.70;37.40
32612;DHT22;19030;49.478;8.986;2023-06-10T12:32:18;33.60;38.10
32612;DHT22;19030;49.478;8.986;2023-06-10T12:36:33;33.10;38.60
32612;DHT22;19030;49.478;8.986;2023-06-10T12:38:34;33.20;38.30
32612;DHT22;19030;49.478;8.986;2023-06-10T12:40:37;33.40;38.00
32612;DHT22;19030;49.478;8.986;2023-06-10T12:42:40;33.70;37.40
32612;DHT22;19030;49.478;8.986;2023-06-10T12:44:41;33.90;37.60
32612;DHT22;19030;49.478;8.986;2023-06-10T12:46:42;33.90;38.10
32612;DHT22;19030;49.478;8.986;2023-06-10T12:48:49;33.90;37.80
32612;DHT22;19030;49.478;8.986;2023-06-10T12:50:57;34.00;36.80
32612;DHT22;19030;49.478;8.986;2023-06-10T12:52:59;34.10;37.20
32612;DHT22;19030;49.478;8.986;2023-06-10T12:54:59;34.00;36.70
32612;DHT22;19030;49.478;8.986;2023-06-10T12:57:01;33.70;37.70
32612;DHT22;19030;49.478;8.986;2023-06-10T12:59:02;33.30;37.10
32612;DHT22;19030;49.478;8.986;2023-06-10T13:01:03;33.40;37.30
32612;DHT22;19030;49.478;8.986;2023-06-10T13:03:04;33.70;36.50